sensor_id;sensor_type;location;lat;lon;timestamp;pressure;altitude;pressure_sealevel;temperature;humidity
10718;BME280;13513;42.700;23.124;2023-03-03T00:00:22;92937.11;;;3.81;100.00
10718;BME280;13513;42.700;23.124;2023-03-03T00:02:52;92937.11;;;3.81;100.00
10718;BME280;13513;42.700;23.124;2023-03-03T00:05:23;92938.94;;;3.81;100.00
10718;BME280;13513;42.700;23.124;2023-03-03T00:07:54;92925.47;;;3.84;100.00
10718;BME280;13513;42.700;23.124;2023-03-03T00:10:25;92932.49;;;3.83;100.00
10718;BME280;13513;42.700;23.124;2023-03-03T00:12:56;92933.40;;;3.86;100.00
10718;BME280;13513;42.700;23.124;2023-03-03T00:15:28;92932.36;;;3.94;100.00
10718;BME280;13513;42.700;23.124;2023-03-03T00:17:59;92931.28;;;3.86;100.00
10718;BME280;13513;42.700;23.124;2023-03-03T00:20:34;92925.56;;;3.86;100.00
10718;BME280;13513;42.700;23.124;2023-03-03T00:25:54;92919.02;;;3.86;100.00
10718;BME280;13513;42.700;23.124;2023-03-03T00:28:26;92920.42;;;3.89;100.00
10718;BME280;13513;42.700;23.124;2023-03-03T00:30:58;92920.10;;;3.94;100.00
10718;BME280;13513;42.700;23.124;2023-03-03T00:33:30;92919.58;;;4.01;100.00
10718;BME280;13513;42.700;23.124;2023-03-03T00:36:30;92924.11;;;3.97;100.00
10718;BME280;13513;42.700;23.124;2023-03-03T00:41:40;92904.84;;;4.13;100.00
10718;BME280;13513;42.700;23.124;2023-03-03T00:46:54;92907.39;;;4.26;100.00
10718;BME280;13513;42.700;23.124;2023-03-03T00:49:27;92904.12;;;4.15;100.00
10718;BME280;13513;42.700;23.124;2023-03-03T00:51:57;92907.27;;;4.30;100.00
10718;BME280;13513;42.700;23.124;2023-03-03T00:54:28;92897.20;;;4.34;100.00
10718;BME280;13513;42.700;23.124;2023-03-03T00:56:59;92889.90;;;4.27;100.00
10718;BME280;13513;42.700;23.124;2023-03-03T00:59:30;92885.65;;;4.10;100.00
10718;BME280;13513;42.700;23.124;2023-03-03T01:02:01;92887.33;;;4.14;100.00
10718;BME280;13513;42.700;23.124;2023-03-03T01:04:31;92885.03;;;4.15;100.00
10718;BME280;13513;42.700;23.124;2023-03-03T01:07:02;92881.13;;;4.08;100.00
10718;BME280;13513;42.700;23.124;2023-03-03T01:09:33;92880.30;;;4.14;100.00
10718;BME280;13513;42.700;23.124;2023-03-03T01:12:04;92876.55;;;4.19;100.00
10718;BME280;13513;42.700;23.124;2023-03-03T01:14:36;92880.18;;;4.18;100.00
10718;BME280;13513;42.700;23.124;2023-03-03T01:17:07;92879.15;;;4.04;100.00
10718;BME280;13513;42.700;23.124;2023-03-03T01:19:37;92878.79;;;4.16;100.00
10718;BME280;13513;42.700;23.124;2023-03-03T01:22:08;92875.11;;;4.08;100.00
10718;BME280;13513;42.700;23.124;2023-03-03T01:24:39;92871.44;;;4.15;100.00
10718;BME280;13513;42.700;23.124;2023-03-03T01:27:10;92873.39;;;4.11;100.00
10718;BME280;13513;42.700;23.124;2023-03-03T01:29:41;92868.33;;;4.16;100.00
10718;BME280;13513;42.700;23.124;2023-03-03T01:32:11;92872.45;;;4.14;100.00
10718;BME280;13513;42.700;23.124;2023-03-03T01:34:43;92868.25;;;4.13;100.00
10718;BME280;13513;42.700;23.124;2023-03-03T01:37:16;92870.70;;;4.02;100.00
10718;BME280;13513;42.700;23.124;2023-03-03T01:39:55;92866.53;;;4.16;100.00
10718;BME280;13513;42.700;23.124;2023-03-03T01:42:22;92866.91;;;4.20;100.00
10718;BME280;13513;42.700;23.124;2023-03-03T01:45:12;92869.23;;;4.19;100.00
10718;BME280;13513;42.700;23.124;2023-03-03T01:47:45;92859.18;;;4.16;100.00
10718;BME280;13513;42.700;23.124;2023-03-03T01:50:21;92862.29;;;4.15;100.00
10718;BME280;13513;42.700;23.124;2023-03-03T01:52:50;92862.33;;;4.09;100.00
10718;BME280;13513;42.700;23.124;2023-03-03T01:55:22;92860.37;;;4.20;100.00
10718;BME280;13513;42.700;23.124;2023-03-03T01:58:06;92862.86;;;4.24;100.00
10718;BME280;13513;42.700;23.124;2023-03-03T02:00:40;92857.26;;;4.20;100.00
10718;BME280;13513;42.700;23.124;2023-03-03T02:03:09;92860.44;;;4.07;100.00
10718;BME280;13513;42.700;23.124;2023-03-03T02:05:41;92851.75;;;4.13;100.00
10718;BME280;13513;42.700;23.124;2023-03-03T02:08:12;92855.55;;;3.95;100.00
10718;BME280;13513;42.700;23.124;2023-03-03T02:10:44;92856.20;;;4.06;100.00
10718;BME280;13513;42.700;23.124;2023-03-03T02:13:16;92851.95;;;3.96;100.00
10718;BME280;13513;42.700;23.124;2023-03-03T02:15:46;92859.34;;;4.05;100.00
10718;BME280;13513;42.700;23.124;2023-03-03T02:18:18;92857.72;;;4.04;100.00
10718;BME280;13513;42.700;23.124;2023-03-03T02:23:54;92850.36;;;4.10;100.00
10718;BME280;13513;42.700;23.124;2023-03-03T02:26:28;92851.99;;;4.05;100.00
10718;BME280;13513;42.700;23.124;2023-03-03T02:28:59;92849.30;;;4.02;100.00
10718;BME280;13513;42.700;23.124;2023-03-03T02:31:30;92853.91;;;4.00;100.00
10718;BME280;13513;42.700;23.124;2023-03-03T02:34:02;92852.59;;;3.85;100.00
10718;BME280;13513;42.700;23.124;2023-03-03T02:36:34;92853.13;;;4.00;100.00
10718;BME280;13513;42.700;23.124;2023-03-03T02:39:18;92846.48;;;4.04;100.00
10718;BME280;13513;42.700;23.124;2023-03-03T02:42:24;92849.50;;;4.01;100.00
10718;BME280;13513;42.700;23.124;2023-03-03T02:44:53;92848.27;;;3.88;100.00
10718;BME280;13513;42.700;23.124;2023-03-03T02:47:24;92847.20;;;3.73;100.00
10718;BME280;13513;42.700;23.124;2023-03-03T02:49:55;92846.88;;;3.85;100.00
10718;BME280;13513;42.700;23.124;2023-03-03T02:52:26;92844.59;;;3.73;100.00
10718;BME280;13513;42.700;23.124;2023-03-03T02:54:57;92841.94;;;3.86;100.00
10718;BME280;13513;42.700;23.124;2023-03-03T02:57:28;92841.94;;;3.86;100.00
10718;BME280;13513;42.700;23.124;2023-03-03T02:59:59;92838.63;;;3.82;100.00
10718;BME280;13513;42.700;23.124;2023-03-03T03:02:30;92840.44;;;3.81;100.00
10718;BME280;13513;42.700;23.124;2023-03-03T03:05:00;92843.86;;;3.82;100.00
10718;BME280;13513;42.700;23.124;2023-03-03T03:07:31;92836.02;;;3.82;100.00
10718;BME280;13513;42.700;23.124;2023-03-03T03:10:02;92840.17;;;3.74;100.00
10718;BME280;13513;42.700;23.124;2023-03-03T03:12:32;92835.56;;;3.69;100.00
10718;BME280;13513;42.700;23.124;2023-03-03T03:15:03;92835.51;;;3.60;100.00
10718;BME280;13513;42.700;23.124;2023-03-03T03:17:33;92837.07;;;3.74;100.00
10718;BME280;13513;42.700;23.124;2023-03-03T03:20:04;92829.30;;;3.55;100.00
10718;BME280;13513;42.700;23.124;2023-03-03T03:22:35;92836.98;;;3.65;100.00
10718;BME280;13513;42.700;23.124;2023-03-03T03:25:06;92833.62;;;3.52;100.00
10718;BME280;13513;42.700;23.124;2023-03-03T03:27:37;92829.06;;;3.63;100.00
10718;BME280;13513;42.700;23.124;2023-03-03T03:30:10;92826.86;;;3.38;100.00
10718;BME280;13513;42.700;23.124;2023-03-03T03:32:42;92825.70;;;3.49;100.00
10718;BME280;13513;42.700;23.124;2023-03-03T03:35:13;92835.06;;;3.41;100.00
10718;BME280;13513;42.700;23.124;2023-03-03T03:37:43;92829.64;;;3.43;100.00
10718;BME280;13513;42.700;23.124;2023-03-03T03:40:13;92834.38;;;3.43;100.00
10718;BME280;13513;42.700;23.124;2023-03-03T03:42:44;92826.33;;;3.38;100.00
10718;BME280;13513;42.700;23.124;2023-03-03T03:45:15;92823.02;;;3.40;100.00
10718;BME280;13513;42.700;23.124;2023-03-03T03:47:45;92820.47;;;3.49;100.00
10718;BME280;13513;42.700;23.124;2023-03-03T03:50:16;92811.94;;;3.45;100.00
10718;BME280;13513;42.700;23.124;2023-03-03T03:52:45;92821.81;;;3.43;100.00
10718;BME280;13513;42.700;23.124;2023-03-03T03:55:16;92819.31;;;3.39;100.00
10718;BME280;13513;42.700;23.124;2023-03-03T03:57:47;92825.95;;;3.35;100.00
10718;BME280;13513;42.700;23.124;2023-03-03T04:00:18;92812.72;;;3.30;100.00
10718;BME280;13513;42.700;23.124;2023-03-03T04:02:50;92813.23;;;3.23;100.00
10718;BME280;13513;42.700;23.124;2023-03-03T04:05:21;92816.84;;;3.28;100.00
10718;BME280;13513;42.700;23.124;2023-03-03T04:07:52;92815.13;;;3.25;100.00
10718;BME280;13513;42.700;23.124;2023-03-03T04:10:23;92818.36;;;3.14;100.00
10718;BME280;13513;42.700;23.124;2023-03-03T04:12:54;92813.05;;;3.11;100.00
10718;BME280;13513;42.700;23.124;2023-03-03T04:15:23;92812.53;;;3.18;100.00
10718;BME280;13513;42.700;23.124;2023-03-03T04:17:54;92810.92;;;3.24;100.00
10718;BME280;13513;42.700;23.124;2023-03-03T04:20:24;92815.55;;;3.15;100.00
10718;BME280;13513;42.700;23.124;2023-03-03T04:22:57;92814.24;;;3.15;100.00
10718;BME280;13513;42.700;23.124;2023-03-03T04:25:28;92816.34;;;3.22;100.00
10718;BME280;13513;42.700;23.124;2023-03-03T04:27:59;92810.10;;;3.23;100.00
10718;BME280;13513;42.700;23.124;2023-03-03T04:30:30;92814.52;;;3.29;100.00
10718;BME280;13513;42.700;23.124;2023-03-03T04:33:00;92809.79;;;3.29;100.00
10718;BME280;13513;42.700;23.124;2023-03-03T04:35:31;92809.12;;;3.24;100.00
10718;BME280;13513;42.700;23.124;2023-03-03T04:38:01;92810.89;;;3.30;100.00
10718;BME280;13513;42.700;23.124;2023-03-03T04:40:32;92810.31;;;3.28;100.00
10718;BME280;13513;42.700;23.124;2023-03-03T04:43:03;92812.17;;;3.37;100.00
10718;BME280;13513;42.700;23.124;2023-03-03T04:45:35;92805.78;;;3.26;100.00
10718;BME280;13513;42.700;23.124;2023-03-03T04:48:06;92811.74;;;3.11;100.00
10718;BME280;13513;42.700;23.124;2023-03-03T04:50:36;92808.63;;;3.18;100.00
10718;BME280;13513;42.700;23.124;2023-03-03T04:53:07;92809.98;;;3.27;100.00
10718;BME280;13513;42.700;23.124;2023-03-03T04:55:39;92811.16;;;3.44;100.00
10718;BME280;13513;42.700;23.124;2023-03-03T04:58:10;92810.31;;;3.50;100.00
10718;BME280;13513;42.700;23.124;2023-03-03T05:00:41;92816.67;;;3.45;100.00
10718;BME280;13513;42.700;23.124;2023-03-03T05:03:12;92816.06;;;3.50;100.00
10718;BME280;13513;42.700;23.124;2023-03-03T05:05:42;92818.45;;;3.58;100.00
10718;BME280;13513;42.700;23.124;2023-03-03T05:08:13;92812.93;;;3.57;100.00
10718;BME280;13513;42.700;23.124;2023-03-03T05:10:44;92825.58;;;3.53;100.00
10718;BME280;13513;42.700;23.124;2023-03-03T05:13:15;92816.09;;;3.65;100.00
10718;BME280;13513;42.700;23.124;2023-03-03T05:15:50;92818.12;;;3.63;100.00
10718;BME280;13513;42.700;23.124;2023-03-03T05:18:20;92820.41;;;3.69;100.00
10718;BME280;13513;42.700;23.124;2023-03-03T05:20:54;92825.64;;;3.69;100.00
10718;BME280;13513;42.700;23.124;2023-03-03T05:23:24;92824.33;;;3.69;100.00
10718;BME280;13513;42.700;23.124;2023-03-03T05:25:55;92822.27;;;3.77;100.00
10718;BME280;13513;42.700;23.124;2023-03-03T05:28:25;92821.86;;;3.80;100.00
10718;BME280;13513;42.700;23.124;2023-03-03T05:30:55;92824.88;;;3.77;100.00
10718;BME280;13513;42.700;23.124;2023-03-03T05:33:26;92822.70;;;3.74;100.00
10718;BME280;13513;42.700;23.124;2023-03-03T05:35:57;92821.60;;;3.73;100.00
10718;BME280;13513;42.700;23.124;2023-03-03T05:38:28;92827.28;;;3.79;100.00
10718;BME280;13513;42.700;23.124;2023-03-03T05:40:59;92826.79;;;3.79;100.00
10718;BME280;13513;42.700;23.124;2023-03-03T05:43:30;92833.81;;;3.79;100.00
10718;BME280;13513;42.700;23.124;2023-03-03T05:46:00;92831.20;;;3.79;100.00
10718;BME280;13513;42.700;23.124;2023-03-03T05:48:32;92827.92;;;3.74;100.00
10718;BME280;13513;42.700;23.124;2023-03-03T05:51:02;92834.30;;;3.85;100.00
10718;BME280;13513;42.700;23.124;2023-03-03T05:53:32;92835.77;;;3.74;100.00
10718;BME280;13513;42.700;23.124;2023-03-03T05:56:05;92831.23;;;3.72;100.00
10718;BME280;13513;42.700;23.124;2023-03-03T05:58:39;92836.87;;;3.76;100.00
10718;BME280;13513;42.700;23.124;2023-03-03T06:01:11;92837.22;;;3.57;100.00
10718;BME280;13513;42.700;23.124;2023-03-03T06:03:43;92834.90;;;3.58;100.00
10718;BME280;13513;42.700;23.124;2023-03-03T06:06:14;92843.08;;;3.53;100.00
10718;BME280;13513;42.700;23.124;2023-03-03T06:08:45;92839.34;;;3.58;100.00
10718;BME280;13513;42.700;23.124;2023-03-03T06:11:16;92834.26;;;3.69;100.00
10718;BME280;13513;42.700;23.124;2023-03-03T06:13:47;92840.44;;;3.59;100.00
10718;BME280;13513;42.700;23.124;2023-03-03T06:16:18;92840.55;;;3.77;100.00
10718;BME280;13513;42.700;23.124;2023-03-03T06:18:49;92838.55;;;3.79;100.00
10718;BME280;13513;42.700;23.124;2023-03-03T06:21:20;92842.60;;;3.91;100.00
10718;BME280;13513;42.700;23.124;2023-03-03T06:23:51;92843.05;;;3.81;100.00
10718;BME280;13513;42.700;23.124;2023-03-03T06:26:22;92843.62;;;3.90;100.00
10718;BME280;13513;42.700;23.124;2023-03-03T06:28:53;92847.84;;;3.69;100.00
10718;BME280;13513;42.700;23.124;2023-03-03T06:31:24;92843.69;;;3.77;100.00
10718;BME280;13513;42.700;23.124;2023-03-03T06:33:55;92845.95;;;3.89;100.00
10718;BME280;13513;42.700;23.124;2023-03-03T06:36:25;92850.07;;;3.87;100.00
10718;BME280;13513;42.700;23.124;2023-03-03T06:38:56;92851.63;;;3.95;100.00
10718;BME280;13513;42.700;23.124;2023-03-03T06:41:27;92852.08;;;4.07;100.00
10718;BME280;13513;42.700;23.124;2023-03-03T06:43:57;92855.95;;;4.20;100.00
10718;BME280;13513;42.700;23.124;2023-03-03T06:46:28;92854.93;;;4.21;100.00
10718;BME280;13513;42.700;23.124;2023-03-03T06:48:58;92857.71;;;4.11;100.00
10718;BME280;13513;42.700;23.124;2023-03-03T06:51:36;92856.32;;;4.24;100.00
10718;BME280;13513;42.700;23.124;2023-03-03T06:54:14;92858.11;;;4.30;100.00
10718;BME280;13513;42.700;23.124;2023-03-03T06:56:42;92859.33;;;4.43;100.00
10718;BME280;13513;42.700;23.124;2023-03-03T06:59:18;92857.26;;;4.20;100.00
10718;BME280;13513;42.700;23.124;2023-03-03T07:01:49;92860.80;;;4.33;100.00
10718;BME280;13513;42.700;23.124;2023-03-03T07:04:32;92862.05;;;4.55;100.00
10718;BME280;13513;42.700;23.124;2023-03-03T07:07:19;92857.30;;;4.61;100.00
10718;BME280;13513;42.700;23.124;2023-03-03T07:09:51;92861.72;;;4.76;100.00
10718;BME280;13513;42.700;23.124;2023-03-03T07:12:25;92864.44;;;4.63;100.00
10718;BME280;13513;42.700;23.124;2023-03-03T07:15:22;92861.77;;;4.69;100.00
10718;BME280;13513;42.700;23.124;2023-03-03T07:17:31;92856.88;;;4.64;100.00
10718;BME280;13513;42.700;23.124;2023-03-03T07:20:10;92859.57;;;4.66;100.00
10718;BME280;13513;42.700;23.124;2023-03-03T07:22:36;92862.40;;;4.80;100.00
10718;BME280;13513;42.700;23.124;2023-03-03T07:25:12;92860.77;;;4.95;100.00
10718;BME280;13513;42.700;23.124;2023-03-03T07:27:38;92860.02;;;4.88;100.00
10718;BME280;13513;42.700;23.124;2023-03-03T07:30:44;92861.17;;;4.83;100.00
10718;BME280;13513;42.700;23.124;2023-03-03T07:32:48;92862.34;;;4.71;100.00
10718;BME280;13513;42.700;23.124;2023-03-03T07:35:37;92860.85;;;4.82;100.00
10718;BME280;13513;42.700;23.124;2023-03-03T07:37:59;92794.15;;;4.42;100.00
10718;BME280;13513;42.700;23.124;2023-03-03T07:43:26;92858.23;;;4.82;100.00
10718;BME280;13513;42.700;23.124;2023-03-03T07:45:45;92856.90;;;4.88;100.00
10718;BME280;13513;42.700;23.124;2023-03-03T07:48:24;92850.86;;;4.72;100.00
10718;BME280;13513;42.700;23.124;2023-03-03T07:50:58;92853.60;;;4.84;100.00
10718;BME280;13513;42.700;23.124;2023-03-03T07:53:33;92850.25;;;4.86;100.00
10718;BME280;13513;42.700;23.124;2023-03-03T07:56:06;92855.81;;;4.96;100.00
10718;BME280;13513;42.700;23.124;2023-03-03T07:58:38;92851.06;;;5.11;100.00
10718;BME280;13513;42.700;23.124;2023-03-03T08:04:18;92847.62;;;5.10;100.00
10718;BME280;13513;42.700;23.124;2023-03-03T08:06:54;92852.23;;;5.15;100.00
10718;BME280;13513;42.700;23.124;2023-03-03T08:09:37;92851.38;;;5.21;100.00
10718;BME280;13513;42.700;23.124;2023-03-03T08:12:18;92842.44;;;5.37;100.00
10718;BME280;13513;42.700;23.124;2023-03-03T08:14:45;92842.30;;;5.41;100.00
10718;BME280;13513;42.700;23.124;2023-03-03T08:17:21;92845.58;;;5.46;100.00
10718;BME280;13513;42.700;23.124;2023-03-03T08:19:53;92843.45;;;5.45;100.00
10718;BME280;13513;42.700;23.124;2023-03-03T08:22:30;92842.38;;;5.62;100.00
10718;BME280;13513;42.700;23.124;2023-03-03T08:24:59;92837.59;;;5.68;100.00
10718;BME280;13513;42.700;23.124;2023-03-03T08:27:32;92838.00;;;5.47;100.00
10718;BME280;13513;42.700;23.124;2023-03-03T08:30:03;92840.05;;;5.63;100.00
10718;BME280;13513;42.700;23.124;2023-03-03T08:32:33;92833.73;;;5.61;100.00
10718;BME280;13513;42.700;23.124;2023-03-03T08:35:05;92831.90;;;5.62;100.00
10718;BME280;13513;42.700;23.124;2023-03-03T08:37:38;92826.33;;;5.85;100.00
10718;BME280;13513;42.700;23.124;2023-03-03T08:40:11;92829.89;;;5.91;100.00
10718;BME280;13513;42.700;23.124;2023-03-03T08:42:41;92829.89;;;5.91;100.00
10718;BME280;13513;42.700;23.124;2023-03-03T08:45:12;92837.43;;;6.08;100.00
10718;BME280;13513;42.700;23.124;2023-03-03T08:47:43;92838.16;;;6.15;100.00
10718;BME280;13513;42.700;23.124;2023-03-03T08:50:14;92831.61;;;5.97;100.00
10718;BME280;13513;42.700;23.124;2023-03-03T08:52:44;92834.44;;;6.13;100.00
10718;BME280;13513;42.700;23.124;2023-03-03T08:55:15;92840.81;;;6.35;100.00
10718;BME280;13513;42.700;23.124;2023-03-03T08:57:45;92835.75;;;6.43;100.00
10718;BME280;13513;42.700;23.124;2023-03-03T09:00:16;92837.22;;;6.39;100.00
10718;BME280;13513;42.700;23.124;2023-03-03T09:02:46;92839.73;;;6.54;100.00
10718;BME280;13513;42.700;23.124;2023-03-03T09:05:19;92844.17;;;6.54;100.00
10718;BME280;13513;42.700;23.124;2023-03-03T09:07:49;92839.81;;;6.27;100.00
10718;BME280;13513;42.700;23.124;2023-03-03T09:10:23;92839.81;;;6.27;100.00
10718;BME280;13513;42.700;23.124;2023-03-03T09:12:54;92829.28;;;6.36;100.00
10718;BME280;13513;42.700;23.124;2023-03-03T09:15:35;92829.28;;;6.36;100.00
10718;BME280;13513;42.700;23.124;2023-03-03T09:18:17;92837.75;;;6.38;100.00
10718;BME280;13513;42.700;23.124;2023-03-03T09:20:51;92836.97;;;6.29;100.00
10718;BME280;13513;42.700;23.124;2023-03-03T09:23:35;92836.50;;;6.32;100.00
10718;BME280;13513;42.700;23.124;2023-03-03T09:29:42;92832.25;;;6.69;100.00
10718;BME280;13513;42.700;23.124;2023-03-03T09:31:40;92828.47;;;6.45;100.00
10718;BME280;13513;42.700;23.124;2023-03-03T09:34:19;92828.53;;;6.68;100.00
10718;BME280;13513;42.700;23.124;2023-03-03T09:36:44;92830.72;;;6.82;100.00
10718;BME280;13513;42.700;23.124;2023-03-03T09:39:27;92835.42;;;6.92;100.00
10718;BME280;13513;42.700;23.124;2023-03-03T09:42:08;92836.37;;;7.20;100.00
10718;BME280;13513;42.700;23.124;2023-03-03T09:47:41;92838.02;;;7.47;100.00
10718;BME280;13513;42.700;23.124;2023-03-03T09:53:42;92843.00;;;7.57;100.00
10718;BME280;13513;42.700;23.124;2023-03-03T09:56:18;92841.73;;;7.60;100.00
10718;BME280;13513;42.700;23.124;2023-03-03T10:02:10;92841.26;;;7.63;100.00
10718;BME280;13513;42.700;23.124;2023-03-03T10:10:05;92829.58;;;7.45;100.00
10718;BME280;13513;42.700;23.124;2023-03-03T10:18:23;92827.13;;;7.78;100.00
10718;BME280;13513;42.700;23.124;2023-03-03T10:21:09;92823.72;;;7.91;100.00
10718;BME280;13513;42.700;23.124;2023-03-03T10:23:54;92830.47;;;7.99;100.00
10718;BME280;13513;42.700;23.124;2023-03-03T10:26:47;92827.42;;;8.04;100.00
10718;BME280;13513;42.700;23.124;2023-03-03T10:32:31;92820.03;;;8.04;100.00
10718;BME280;13513;42.700;23.124;2023-03-03T10:35:16;92816.19;;;7.83;100.00
10718;BME280;13513;42.700;23.124;2023-03-03T10:40:46;92811.65;;;7.79;100.00
10718;BME280;13513;42.700;23.124;2023-03-03T10:46:10;92815.58;;;8.18;100.00
10718;BME280;13513;42.700;23.124;2023-03-03T10:57:16;92803.69;;;8.16;100.00
10718;BME280;13513;42.700;23.124;2023-03-03T11:02:37;92804.59;;;8.07;100.00
10718;BME280;13513;42.700;23.124;2023-03-03T11:05:35;92806.56;;;8.26;100.00
10718;BME280;13513;42.700;23.124;2023-03-03T11:08:12;92801.06;;;8.16;100.00
10718;BME280;13513;42.700;23.124;2023-03-03T11:11:04;92795.66;;;8.08;100.00
10718;BME280;13513;42.700;23.124;2023-03-03T11:13:47;92789.59;;;8.08;100.00
10718;BME280;13513;42.700;23.124;2023-03-03T11:16:39;92789.64;;;8.10;100.00
10718;BME280;13513;42.700;23.124;2023-03-03T11:19:24;92791.02;;;7.87;100.00
10718;BME280;13513;42.700;23.124;2023-03-03T11:22:24;92783.63;;;7.84;100.00
10718;BME280;13513;42.700;23.124;2023-03-03T11:33:14;92778.42;;;7.75;100.00
10718;BME280;13513;42.700;23.124;2023-03-03T11:36:09;92777.56;;;7.72;100.00
10718;BME280;13513;42.700;23.124;2023-03-03T11:38:33;92774.66;;;7.71;100.00
10718;BME280;13513;42.700;23.124;2023-03-03T11:41:07;92770.17;;;7.58;100.00
10718;BME280;13513;42.700;23.124;2023-03-03T11:43:50;92771.12;;;7.40;100.00
10718;BME280;13513;42.700;23.124;2023-03-03T11:46:19;92769.93;;;7.34;100.00
10718;BME280;13513;42.700;23.124;2023-03-03T11:54:23;92760.87;;;7.04;100.00
10718;BME280;13513;42.700;23.124;2023-03-03T11:57:09;92760.99;;;6.98;100.00
10718;BME280;13513;42.700;23.124;2023-03-03T11:59:54;92755.56;;;7.02;100.00
10718;BME280;13513;42.700;23.124;2023-03-03T12:02:34;92760.45;;;6.75;100.00
10718;BME280;13513;42.700;23.124;2023-03-03T12:10:27;92759.58;;;6.29;100.00
10718;BME280;13513;42.700;23.124;2023-03-03T12:13:05;92761.91;;;6.07;100.00
10718;BME280;13513;42.700;23.124;2023-03-03T12:15:48;92758.73;;;5.87;100.00
10718;BME280;13513;42.700;23.124;2023-03-03T12:18:42;92757.42;;;5.96;100.00
10718;BME280;13513;42.700;23.124;2023-03-03T12:21:24;92759.20;;;5.84;100.00
10718;BME280;13513;42.700;23.124;2023-03-03T12:37:53;92757.34;;;6.23;100.00
10718;BME280;13513;42.700;23.124;2023-03-03T12:40:33;92758.27;;;6.29;100.00
10718;BME280;13513;42.700;23.124;2023-03-03T12:43:32;92758.64;;;6.44;100.00
10718;BME280;13513;42.700;23.124;2023-03-03T12:46:10;92758.64;;;6.44;100.00
10718;BME280;13513;42.700;23.124;2023-03-03T12:48:42;92758.82;;;6.51;100.00
10718;BME280;13513;42.700;23.124;2023-03-03T12:54:06;92760.30;;;6.91;100.00
10718;BME280;13513;42.700;23.124;2023-03-03T12:56:39;92753.91;;;7.10;100.00
10718;BME280;13513;42.700;23.124;2023-03-03T12:59:19;92749.89;;;7.19;100.00
10718;BME280;13513;42.700;23.124;2023-03-03T13:10:12;92742.31;;;8.24;100.00
10718;BME280;13513;42.700;23.124;2023-03-03T13:15:37;92740.50;;;9.08;100.00
10718;BME280;13513;42.700;23.124;2023-03-03T13:18:32;92732.13;;;9.30;100.00
10718;BME280;13513;42.700;23.124;2023-03-03T13:21:09;92730.39;;;9.38;100.00
10718;BME280;13513;42.700;23.124;2023-03-03T13:32:02;92735.81;;;9.48;100.00
10718;BME280;13513;42.700;23.124;2023-03-03T13:37:26;92734.02;;;9.32;100.00
10718;BME280;13513;42.700;23.124;2023-03-03T13:40:14;92738.84;;;9.18;100.00
10718;BME280;13513;42.700;23.124;2023-03-03T13:42:46;92738.53;;;9.17;100.00
10718;BME280;13513;42.700;23.124;2023-03-03T13:53:55;92729.20;;;9.26;100.00
10718;BME280;13513;42.700;23.124;2023-03-03T14:05:33;92740.75;;;8.57;100.00
10718;BME280;13513;42.700;23.124;2023-03-03T14:08:41;92738.21;;;8.31;100.00
10718;BME280;13513;42.700;23.124;2023-03-03T14:13:38;92750.31;;;8.04;100.00
10718;BME280;13513;42.700;23.124;2023-03-03T14:16:09;92747.16;;;7.90;100.00
10718;BME280;13513;42.700;23.124;2023-03-03T14:18:55;92744.72;;;7.86;100.00
10718;BME280;13513;42.700;23.124;2023-03-03T14:21:38;92742.60;;;7.72;100.00
10718;BME280;13513;42.700;23.124;2023-03-03T14:24:17;92740.75;;;7.58;100.00
10718;BME280;13513;42.700;23.124;2023-03-03T14:26:55;92734.04;;;7.65;100.00
10718;BME280;13513;42.700;23.124;2023-03-03T14:29:31;92737.09;;;7.59;100.00
10718;BME280;13513;42.700;23.124;2023-03-03T14:32:19;92730.60;;;7.64;100.00
10718;BME280;13513;42.700;23.124;2023-03-03T14:34:40;92731.81;;;7.71;100.00
10718;BME280;13513;42.700;23.124;2023-03-03T14:37:24;92735.45;;;7.70;100.00
10718;BME280;13513;42.700;23.124;2023-03-03T14:40:21;92732.15;;;7.88;100.00
10718;BME280;13513;42.700;23.124;2023-03-03T14:42:56;92738.47;;;7.90;100.00
10718;BME280;13513;42.700;23.124;2023-03-03T14:45:35;92742.06;;;7.98;100.00
10718;BME280;13513;42.700;23.124;2023-03-03T14:48:16;92736.89;;;8.03;100.00
10718;BME280;13513;42.700;23.124;2023-03-03T14:53:37;92734.41;;;7.96;100.00
10718;BME280;13513;42.700;23.124;2023-03-03T15:01:39;92724.97;;;7.72;100.00
10718;BME280;13513;42.700;23.124;2023-03-03T15:04:25;92724.38;;;7.68;100.00
10718;BME280;13513;42.700;23.124;2023-03-03T15:06:58;92726.36;;;7.75;100.00
10718;BME280;13513;42.700;23.124;2023-03-03T15:09:50;92720.66;;;7.80;100.00
10718;BME280;13513;42.700;23.124;2023-03-03T15:12:24;92723.72;;;7.89;100.00
10718;BME280;13513;42.700;23.124;2023-03-03T15:17:38;92716.88;;;8.02;100.00
10718;BME280;13513;42.700;23.124;2023-03-03T15:20:34;92708.50;;;8.05;100.00
10718;BME280;13513;42.700;23.124;2023-03-03T15:29:01;92721.37;;;8.18;100.00
10718;BME280;13513;42.700;23.124;2023-03-03T15:34:25;92722.34;;;8.26;100.00
10718;BME280;13513;42.700;23.124;2023-03-03T15:37:33;92724.94;;;8.23;100.00
10718;BME280;13513;42.700;23.124;2023-03-03T15:42:47;92727.73;;;8.19;100.00
10718;BME280;13513;42.700;23.124;2023-03-03T15:45:42;92728.61;;;8.11;100.00
10718;BME280;13513;42.700;23.124;2023-03-03T15:48:33;92731.39;;;8.04;100.00
10718;BME280;13513;42.700;23.124;2023-03-03T15:57:00;92737.48;;;7.65;100.00
10718;BME280;13513;42.700;23.124;2023-03-03T15:59:43;92738.44;;;7.48;100.00
10718;BME280;13513;42.700;23.124;2023-03-03T16:02:21;92737.98;;;7.39;100.00
10718;BME280;13513;42.700;23.124;2023-03-03T16:05:14;92734.91;;;7.42;100.00
10718;BME280;13513;42.700;23.124;2023-03-03T16:08:12;92737.23;;;7.41;100.00
10718;BME280;13513;42.700;23.124;2023-03-03T16:11:06;92743.16;;;7.48;100.00
10718;BME280;13513;42.700;23.124;2023-03-03T16:13:44;92752.36;;;7.48;100.00
10718;BME280;13513;42.700;23.124;2023-03-03T16:22:01;92759.97;;;7.47;100.00